Time;durP1;ratioP1;P1;durP2;ratioP2;P2;SDS_P1;SDS_P2;PMS_P1;PMS_P2;Temp;Humidity;BMP_temperature;BMP_pressure;BME280_temperature;BME280_humidity;BME280_pressure;Samples;Min_cycle;Max_cycle;Signal;HPM_P1;HPM_P2
2023/03/12 07:17:41;;;;;;;26.33;17.08;;;8.90;99.90;;;;;;6150209;23;20362;-78
2023/03/12 07:20:09;;;;;;;23.20;15.77;;;9.00;99.90;;;;;;6126292;23;20402;-80
2023/03/12 07:22:35;;;;;;;27.67;17.33;;;9.00;99.90;;;;;;6124864;23;20432;-81
2023/03/12 07:25:03;;;;;;;26.38;17.02;;;9.00;99.90;;;;;;6125957;23;20378;-81
2023/03/12 07:27:30;;;;;;;21.33;14.85;;;9.10;99.90;;;;;;6150752;23;20374;-81
2023/03/12 07:29:57;;;;;;;21.63;14.63;;;9.20;99.90;;;;;;6125636;23;20395;-81
2023/03/12 07:32:24;;;;;;;30.13;16.75;;;9.30;99.90;;;;;;6124629;23;20378;-81
2023/03/12 07:34:51;;;;;;;22.77;14.65;;;9.40;99.90;;;;;;6125172;23;20374;-81
2023/03/12 07:37:18;;;;;;;24.63;16.25;;;9.60;99.90;;;;;;6151028;23;20386;-81
2023/03/12 07:39:46;;;;;;;26.52;16.80;;;9.70;99.90;;;;;;6124282;23;20373;-80
2023/03/12 07:42:13;;;;;;;23.33;15.77;;;10.00;99.90;;;;;;6151172;23;20378;-81
2023/03/12 07:44:40;;;;;;;25.55;16.05;;;10.20;99.90;;;;;;6124609;23;20378;-81
2023/03/12 07:47:07;;;;;;;20.58;14.50;;;10.40;99.90;;;;;;6149987;23;20370;-78
2023/03/12 07:49:49;;;;;;;25.75;16.60;;;10.60;99.90;;;;;;6128090;23;20439;-81
2023/03/12 07:52:17;;;;;;;23.30;17.23;;;10.80;99.90;;;;;;6125517;23;20378;-81
2023/03/12 07:54:44;;;;;;;27.88;15.70;;;11.10;99.90;;;;;;6124983;23;20790;-81
2023/03/12 07:57:11;;;;;;;19.02;12.63;;;11.30;99.50;;;;;;6125845;23;20374;-81
2023/03/12 07:59:38;;;;;;;21.30;14.90;;;11.50;99.20;;;;;;6125344;23;20378;-81
2023/03/12 08:02:05;;;;;;;18.70;12.57;;;11.70;97.80;;;;;;6126010;23;20401;-81
2023/03/12 08:04:32;;;;;;;21.17;12.02;;;11.90;98.00;;;;;;6126711;23;20385;-81
2023/03/12 08:07:01;;;;;;;18.27;12.87;;;12.00;96.70;;;;;;6127291;23;20378;-81
2023/03/12 08:09:28;;;;;;;16.38;10.73;;;12.30;96.40;;;;;;6126745;23;20386;-82
2023/03/12 08:11:55;;;;;;;18.20;9.20;;;12.50;93.30;;;;;;6127969;23;20445;-82
2023/03/12 08:14:22;;;;;;;15.20;8.48;;;12.70;90.60;;;;;;6126974;23;20386;-81
2023/03/12 08:16:49;;;;;;;11.25;6.85;;;12.90;89.50;;;;;;6125913;23;20378;-80
2023/03/12 08:19:16;;;;;;;11.27;6.05;;;13.00;82.30;;;;;;6153030;23;20380;-81
2023/03/12 08:21:43;;;;;;;13.18;6.57;;;13.20;80.60;;;;;;6101904;23;20420;-82
2023/03/12 08:24:10;;;;;;;9.67;5.23;;;13.30;77.10;;;;;;6127688;23;20385;-81
2023/03/12 08:26:37;;;;;;;7.50;5.27;;;13.50;78.00;;;;;;6126482;23;20496;-81
2023/03/12 08:29:04;;;;;;;10.75;5.80;;;13.60;73.60;;;;;;6127838;23;20369;-81
2023/03/12 08:31:31;;;;;;;10.43;6.07;;;13.70;71.90;;;;;;6152104;23;20386;-81
2023/03/12 08:33:58;;;;;;;11.00;5.63;;;13.80;70.60;;;;;;6126682;23;20697;-81
2023/03/12 08:36:25;;;;;;;10.38;5.53;;;13.80;66.90;;;;;;6127264;23;20465;-81
2023/03/12 08:38:52;;;;;;;8.45;5.25;;;14.00;68.30;;;;;;6125862;23;20363;-81
2023/03/12 08:41:18;;;;;;;10.50;5.15;;;14.10;67.70;;;;;;6152971;23;20390;-80
2023/03/12 08:43:45;;;;;;;10.13;5.30;;;14.10;62.30;;;;;;6125919;23;20436;-80
2023/03/12 08:46:13;;;;;;;8.33;4.60;;;14.00;63.20;;;;;;6126820;23;20701;-80
2023/03/12 08:48:40;;;;;;;6.50;3.85;;;14.00;61.90;;;;;;6125805;23;20396;-80
2023/03/12 08:51:09;;;;;;;7.27;3.70;;;14.10;62.20;;;;;;6128565;23;20437;-79
2023/03/12 08:53:36;;;;;;;9.47;4.30;;;14.20;62.00;;;;;;6125624;23;20456;-80
2023/03/12 08:56:04;;;;;;;7.25;4.47;;;14.40;61.60;;;;;;6127005;23;20413;-79
2023/03/12 08:58:31;;;;;;;5.93;3.15;;;14.50;59.00;;;;;;6126930;23;20859;-80
2023/03/12 09:00:58;;;;;;;7.68;3.88;;;14.60;59.80;;;;;;6127285;23;20404;-80
2023/03/12 09:03:25;;;;;;;8.75;4.80;;;14.80;58.50;;;;;;6126124;23;20756;-80
2023/03/12 09:06:11;;;;;;;6.13;3.47;;;14.70;57.80;;;;;;6127727;23;20724;-80
2023/03/12 09:08:39;;;;;;;5.83;3.73;;;14.70;57.70;;;;;;6127532;23;20370;-80
2023/03/12 09:11:08;;;;;;;6.38;3.95;;;14.80;58.10;;;;;;6127270;23;20381;-80
2023/03/12 09:13:35;;;;;;;5.78;3.42;;;15.00;57.90;;;;;;6125530;23;20432;-78
2023/03/12 09:16:22;;;;;;;8.35;3.83;;;15.00;57.70;;;;;;6130421;23;20874;-80
2023/03/12 09:18:49;;;;;;;6.57;4.15;;;15.20;57.40;;;;;;6125488;23;20372;-80
2023/03/12 09:21:16;;;;;;;7.93;4.20;;;15.20;57.40;;;;;;6152464;23;20374;-80
2023/03/12 09:23:43;;;;;;;7.10;4.38;;;15.30;57.50;;;;;;6125843;23;20375;-80
2023/03/12 09:26:11;;;;;;;7.43;4.07;;;15.40;56.40;;;;;;6126731;23;20437;-80
2023/03/12 09:28:38;;;;;;;6.35;4.18;;;15.50;56.50;;;;;;6125585;23;20432;-80
2023/03/12 09:31:05;;;;;;;5.15;3.55;;;15.60;56.70;;;;;;6126280;23;20394;-80
2023/03/12 09:33:34;;;;;;;8.00;4.18;;;15.80;56.90;;;;;;6126567;23;20384;-80
2023/03/12 09:36:02;;;;;;;9.80;4.32;;;15.90;55.20;;;;;;6125805;23;21151;-80
2023/03/12 09:38:34;;;;;;;8.68;3.95;;;16.00;54.40;;;;;;6126725;23;20374;-80
2023/03/12 09:41:04;;;;;;;7.28;4.50;;;16.00;54.00;;;;;;6125560;23;20429;-80
2023/03/12 09:43:31;;;;;;;7.10;3.70;;;16.10;54.20;;;;;;6126408;23;20374;-80
2023/03/12 09:45:59;;;;;;;7.43;3.53;;;16.10;53.40;;;;;;6125008;23;20740;-80
2023/03/12 09:48:36;;;;;;;5.18;2.92;;;16.10;53.40;;;;;;6126491;23;20704;-80
2023/03/12 09:51:37;;;;;;;6.40;3.30;;;16.20;53.30;;;;;;6125524;23;20358;-80
2023/03/12 09:54:06;;;;;;;5.65;3.35;;;16.00;51.90;;;;;;6116899;23;20438;-80
2023/03/12 09:56:34;;;;;;;5.45;2.92;;;15.90;53.10;;;;;;6126298;23;20386;-80
2023/03/12 09:59:01;;;;;;;6.95;3.58;;;15.90;53.60;;;;;;6124922;23;20420;-80
2023/03/12 10:01:31;;;;;;;6.65;3.38;;;16.10;53.30;;;;;;6126134;23;20420;-81
2023/03/12 10:04:16;;;;;;;6.28;3.25;;;16.10;52.80;;;;;;6124687;23;20442;-80
2023/03/12 10:07:00;;;;;;;7.30;4.50;;;16.10;51.90;;;;;;6125291;23;20382;-80
2023/03/12 10:09:36;;;;;;;7.30;3.92;;;16.10;52.00;;;;;;6126071;23;20445;-79
2023/03/12 10:12:37;;;;;;;6.80;3.53;;;15.90;52.20;;;;;;6125365;23;20370;-80
2023/03/12 10:15:31;;;;;;;7.50;4.15;;;15.90;52.50;;;;;;6125237;23;20374;-80
2023/03/12 10:18:10;;;;;;;7.43;4.10;;;15.90;52.70;;;;;;6124781;23;20719;-81
2023/03/12 10:20:56;;;;;;;5.90;3.78;;;15.90;53.10;;;;;;6126232;23;20857;-80
2023/03/12 10:23:40;;;;;;;8.13;3.93;;;16.10;52.20;;;;;;6124535;23;20381;-80
2023/03/12 10:26:21;;;;;;;6.30;3.00;;;16.20;51.80;;;;;;6150705;23;20684;-80
2023/03/12 10:28:58;;;;;;;5.85;3.33;;;16.30;51.70;;;;;;6125659;23;20402;-80
2023/03/12 10:31:33;;;;;;;9.10;3.70;;;16.30;51.50;;;;;;6125309;23;20370;-80
2023/03/12 10:34:02;;;;;;;6.50;3.35;;;16.30;52.70;;;;;;6125770;23;20374;-80
2023/03/12 10:36:39;;;;;;;7.80;3.60;;;16.40;52.80;;;;;;6125404;23;20386;-80
2023/03/12 10:39:17;;;;;;;8.57;3.92;;;16.50;52.20;;;;;;6150707;23;20377;-80
2023/03/12 10:41:46;;;;;;;6.05;3.80;;;16.80;51.40;;;;;;6125971;23;20685;-80
2023/03/12 10:44:20;;;;;;;5.50;3.47;;;16.80;51.90;;;;;;6125084;23;20382;-80
2023/03/12 10:46:58;;;;;;;8.18;5.25;;;16.90;52.10;;;;;;6125423;23;20424;-80
2023/03/12 10:49:29;;;;;;;6.15;4.47;;;17.00;52.20;;;;;;6124946;23;20449;-79
2023/03/12 10:52:03;;;;;;;6.38;3.78;;;16.90;51.50;;;;;;6151780;23;20441;-79
2023/03/12 10:54:39;;;;;;;5.90;2.92;;;17.00;51.70;;;;;;6124898;23;20378;-80
2023/03/12 10:57:07;;;;;;;6.15;3.30;;;17.20;52.00;;;;;;6124028;23;20833;-81
2023/03/12 10:59:37;;;;;;;6.22;3.45;;;17.20;50.30;;;;;;6125246;23;20374;-80
2023/03/12 11:02:33;;;;;;;4.72;3.10;;;17.20;52.10;;;;;;6125386;23;20393;-80
2023/03/12 11:05:02;;;;;;;6.18;3.75;;;17.30;51.00;;;;;;6124402;23;20445;-80
2023/03/12 11:07:34;;;;;;;10.20;4.20;;;17.30;51.50;;;;;;6151018;23;20404;-79
2023/03/12 11:10:07;;;;;;;3.58;2.53;;;17.30;50.10;;;;;;6145705;23;20363;-80
2023/03/12 11:12:38;;;;;;;7.37;3.37;;;17.20;51.10;;;;;;6155298;23;20526;-80
2023/03/12 11:15:34;;;;;;;7.57;3.75;;;17.30;50.60;;;;;;6180292;23;20751;-80
2023/03/12 11:18:21;;;;;;;6.63;4.07;;;17.40;50.80;;;;;;6152139;23;20384;-80
2023/03/12 11:20:51;;;;;;;6.00;3.22;;;17.50;50.30;;;;;;6154199;23;20411;-80
2023/03/12 11:23:30;;;;;;;8.88;3.53;;;17.70;50.00;;;;;;6155353;23;20644;-80
2023/03/12 11:26:19;;;;;;;6.30;3.20;;;17.70;49.40;;;;;;6129922;23;20380;-80
2023/03/12 11:28:50;;;;;;;5.10;3.13;;;17.80;50.20;;;;;;6154746;23;20391;-80
2023/03/12 11:31:36;;;;;;;7.17;3.47;;;17.90;48.80;;;;;;6155155;23;20376;-79
2023/03/12 11:34:25;;;;;;;6.45;3.28;;;17.90;49.10;;;;;;6154944;23;20399;-79
2023/03/12 11:37:00;;;;;;;6.77;3.40;;;18.00;49.80;;;;;;6155765;23;20743;-80
2023/03/12 11:39:42;;;;;;;6.43;3.25;;;18.00;49.00;;;;;;6182453;23;20768;-79
2023/03/12 11:42:24;;;;;;;7.55;3.28;;;17.90;49.30;;;;;;6156624;23;20698;-80
2023/03/12 11:45:06;;;;;;;8.73;3.53;;;18.00;49.90;;;;;;6156248;23;20372;-80
2023/03/12 11:47:53;;;;;;;7.65;3.58;;;17.80;49.10;;;;;;6156271;23;20459;-80
2023/03/12 11:50:27;;;;;;;5.97;3.22;;;18.00;49.20;;;;;;6156153;23;20368;-79
2023/03/12 11:53:19;;;;;;;6.10;3.40;;;17.80;49.60;;;;;;6156594;23;20403;-80
2023/03/12 11:56:12;;;;;;;6.40;3.38;;;17.70;49.50;;;;;;6155905;23;20372;-77
2023/03/12 11:58:56;;;;;;;6.63;3.45;;;17.40;50.40;;;;;;6155791;23;20849;-80
2023/03/12 12:01:39;;;;;;;11.27;7.28;;;17.40;52.20;;;;;;6155686;23;20455;-79
2023/03/12 12:04:32;;;;;;;8.52;4.10;;;17.70;50.30;;;;;;6183067;23;20376;-80
2023/03/12 12:07:10;;;;;;;7.43;3.40;;;17.80;50.50;;;;;;6155552;23;20388;-79
2023/03/12 12:09:46;;;;;;;7.20;3.60;;;18.00;49.20;;;;;;6156064;23;20423;-81
2023/03/12 12:13:07;;;;;;;6.47;3.35;;;18.10;49.70;;;;;;6156716;23;20467;-79
2023/03/12 12:16:12;;;;;;;9.98;4.57;;;18.20;49.40;;;;;;6006394;23;20384;-80
2023/03/12 12:18:56;;;;;;;5.60;2.47;;;18.50;49.90;;;;;;6087686;23;20436;-78
2023/03/12 12:21:49;;;;;;;7.55;3.28;;;18.60;48.30;;;;;;6125584;23;20771;-79
2023/03/12 12:24:44;;;;;;;4.55;3.00;;;18.70;47.00;;;;;;6111471;23;20378;-80
2023/03/12 12:27:23;;;;;;;6.97;3.80;;;18.60;47.60;;;;;;6127220;23;20406;-77
2023/03/12 12:30:09;;;;;;;5.80;3.13;;;18.50;48.10;;;;;;6125886;23;20396;-80
2023/03/12 12:33:07;;;;;;;6.72;3.28;;;18.70;49.00;;;;;;6151551;23;20437;-79
2023/03/12 12:35:37;;;;;;;5.80;3.40;;;18.80;48.00;;;;;;6126700;23;20413;-80
2023/03/12 12:38:17;;;;;;;9.27;4.50;;;18.90;47.60;;;;;;6127907;23;20386;-80
2023/03/12 12:40:48;;;;;;;5.13;3.00;;;19.10;47.50;;;;;;6153391;23;20934;-80
2023/03/12 12:43:27;;;;;;;8.23;3.10;;;19.20;46.40;;;;;;6127821;23;20405;-79
2023/03/12 12:45:58;;;;;;;4.32;2.35;;;19.30;45.10;;;;;;6126250;23;20844;-79
2023/03/12 12:48:37;;;;;;;6.78;2.47;;;19.50;45.90;;;;;;6127417;23;20378;-80
2023/03/12 12:51:05;;;;;;;7.80;3.17;;;19.70;44.60;;;;;;6126882;23;20755;-79
2023/03/12 12:53:55;;;;;;;3.88;2.22;;;19.70;45.60;;;;;;6127995;23;20374;-80
2023/03/12 12:56:37;;;;;;;6.53;2.50;;;19.60;45.30;;;;;;6127046;23;20428;-78
2023/03/12 12:59:24;;;;;;;3.90;2.47;;;19.70;45.50;;;;;;6126757;23;20413;-79
2023/03/12 13:01:54;;;;;;;20.73;13.95;;;19.90;44.40;;;;;;6127060;23;20436;-80
2023/03/12 13:04:23;;;;;;;6.85;3.20;;;20.00;44.90;;;;;;6151226;23;20374;-77
2023/03/12 13:06:57;;;;;;;5.20;2.67;;;20.10;43.90;;;;;;6152691;23;20382;-80
2023/03/12 13:09:37;;;;;;;4.22;2.47;;;20.00;43.20;;;;;;6126758;23;20389;-79
2023/03/12 13:12:14;;;;;;;5.57;2.45;;;19.90;44.20;;;;;;6127441;23;20378;-78
2023/03/12 13:14:45;;;;;;;3.70;2.35;;;19.80;44.80;;;;;;6128129;23;20385;-79
2023/03/12 13:17:31;;;;;;;18.55;10.27;;;19.80;44.70;;;;;;6144681;23;20382;-80
2023/03/12 13:20:07;;;;;;;5.65;2.88;;;19.90;44.40;;;;;;6153222;23;20401;-79
2023/03/12 13:22:36;;;;;;;6.40;2.72;;;19.90;45.10;;;;;;6151223;23;20366;-79
2023/03/12 13:25:33;;;;;;;7.73;3.40;;;20.10;45.00;;;;;;6151671;23;20385;-80
2023/03/12 13:28:21;;;;;;;7.88;3.55;;;20.40;44.10;;;;;;6150715;23;20728;-80
2023/03/12 13:30:50;;;;;;;8.38;4.35;;;20.50;43.30;;;;;;6149823;23;20378;-80
2023/03/12 13:33:20;;;;;;;6.43;2.97;;;20.00;43.80;;;;;;6151137;23;20852;-79
2023/03/12 13:36:03;;;;;;;4.82;2.03;;;19.80;44.60;;;;;;6149609;23;20378;-80
2023/03/12 13:38:50;;;;;;;6.28;2.50;;;19.60;45.60;;;;;;6151264;23;20441;-79
2023/03/12 13:41:32;;;;;;;6.35;2.97;;;19.70;45.50;;;;;;6151994;23;20370;-79
2023/03/12 13:43:59;;;;;;;5.75;2.45;;;19.70;44.20;;;;;;6149887;23;20465;-80
2023/03/12 13:46:46;;;;;;;5.63;2.75;;;19.70;46.00;;;;;;6150789;23;20751;-79
2023/03/12 13:49:16;;;;;;;5.82;2.30;;;19.80;44.60;;;;;;6150134;23;20374;-80
2023/03/12 13:52:20;;;;;;;7.00;2.33;;;19.90;45.20;;;;;;6153963;23;20756;-80
2023/03/12 13:54:57;;;;;;;4.68;2.30;;;20.10;44.70;;;;;;6145849;23;20378;-79
2023/03/12 13:57:28;;;;;;;9.55;4.85;;;20.20;43.90;;;;;;6150904;23;20782;-79
2023/03/12 13:59:56;;;;;;;6.10;2.78;;;20.40;44.00;;;;;;6151477;23;20366;-79
2023/03/12 14:02:31;;;;;;;4.80;1.95;;;20.10;43.90;;;;;;6151808;23;20431;-80
2023/03/12 14:05:06;;;;;;;6.00;2.88;;;20.10;44.50;;;;;;6127865;23;20736;-80
2023/03/12 14:07:42;;;;;;;7.32;2.42;;;20.00;44.20;;;;;;6150631;23;20397;-79
2023/03/12 14:10:12;;;;;;;5.30;2.80;;;19.90;44.30;;;;;;6150793;23;20472;-79
2023/03/12 14:13:00;;;;;;;5.10;1.93;;;20.00;44.00;;;;;;6150601;23;20374;-78
2023/03/12 14:15:31;;;;;;;6.53;2.50;;;20.00;43.90;;;;;;6149889;23;20444;-79
2023/03/12 14:18:02;;;;;;;5.60;2.50;;;20.10;44.10;;;;;;6126288;23;20448;-81
2023/03/12 14:20:30;;;;;;;5.80;1.95;;;20.20;43.90;;;;;;6152430;23;20378;-79
2023/03/12 14:23:03;;;;;;;4.53;2.10;;;20.30;43.90;;;;;;6128144;23;20404;-79
2023/03/12 14:25:42;;;;;;;3.53;1.87;;;20.50;43.80;;;;;;6128181;23;20382;-80
2023/03/12 14:28:19;;;;;;;7.35;2.55;;;20.50;43.10;;;;;;6128325;23;20405;-80
2023/03/12 14:31:13;;;;;;;6.20;2.60;;;20.60;42.30;;;;;;6103423;23;20424;-80
2023/03/12 14:33:52;;;;;;;5.07;2.03;;;20.70;43.00;;;;;;6114478;23;20386;-79
2023/03/12 14:36:22;;;;;;;7.40;2.33;;;20.60;43.20;;;;;;6126581;23;20374;-80
2023/03/12 14:39:09;;;;;;;4.35;1.80;;;20.80;43.70;;;;;;6150696;23;20713;-80
2023/03/12 14:41:41;;;;;;;4.70;1.98;;;20.70;42.70;;;;;;6151946;23;20378;-79
2023/03/12 14:44:36;;;;;;;12.05;7.35;;;20.70;42.60;;;;;;6128717;23;20400;-80
2023/03/12 14:47:06;;;;;;;7.63;3.30;;;20.60;42.20;;;;;;6121090;23;20374;-79
2023/03/12 14:49:40;;;;;;;4.28;1.80;;;20.40;42.70;;;;;;6126560;23;20389;-80
2023/03/12 14:52:09;;;;;;;3.38;1.30;;;20.40;44.00;;;;;;6125798;23;20401;-79
2023/03/12 14:54:38;;;;;;;3.80;1.50;;;20.50;44.20;;;;;;6127240;23;20600;-79
2023/03/12 14:57:11;;;;;;;7.53;2.53;;;20.60;43.40;;;;;;6125345;23;20370;-79
2023/03/12 14:59:38;;;;;;;5.00;1.97;;;20.40;42.70;;;;;;6126849;23;20370;-80
2023/03/12 15:02:18;;;;;;;6.33;1.90;;;20.30;43.00;;;;;;6124579;23;20700;-80
2023/03/12 15:04:47;;;;;;;2.20;1.10;;;20.20;43.20;;;;;;6124641;23;20410;-80
2023/03/12 15:07:20;;;;;;;6.65;1.90;;;20.20;43.50;;;;;;6126310;23;20378;-80
2023/03/12 15:09:50;;;;;;;5.03;1.77;;;20.10;43.60;;;;;;6125762;23;20382;-80
2023/03/12 15:12:23;;;;;;;4.47;1.52;;;19.90;44.10;;;;;;6128667;23;20366;-79
2023/03/12 15:14:54;;;;;;;5.00;1.60;;;19.80;45.30;;;;;;6128861;23;20375;-80
2023/03/12 15:17:26;;;;;;;4.93;1.17;;;19.80;44.60;;;;;;6148974;23;20393;-79
2023/03/12 15:19:53;;;;;;;7.07;2.15;;;19.80;44.60;;;;;;6153883;23;20381;-79
2023/03/12 15:22:23;;;;;;;6.53;1.95;;;19.70;44.30;;;;;;6154843;23;20748;-79
2023/03/12 15:24:50;;;;;;;5.80;1.98;;;19.80;44.00;;;;;;6153027;23;20828;-79
2023/03/12 15:27:27;;;;;;;4.10;1.48;;;19.80;43.70;;;;;;6154277;23;20377;-79
2023/03/12 15:29:55;;;;;;;4.22;1.80;;;19.90;44.70;;;;;;6152882;23;20704;-80
2023/03/12 15:32:24;;;;;;;5.60;1.73;;;20.00;44.60;;;;;;6152629;23;20370;-79
2023/03/12 15:34:53;;;;;;;6.30;2.08;;;20.00;43.80;;;;;;6128631;23;20393;-80
2023/03/12 15:37:31;;;;;;;5.90;2.80;;;20.00;44.00;;;;;;6154088;23;20370;-80
2023/03/12 15:40:01;;;;;;;4.25;1.48;;;20.20;44.20;;;;;;6153171;23;20389;-80
2023/03/12 15:42:28;;;;;;;4.75;1.48;;;20.30;43.40;;;;;;6153017;23;20425;-76
2023/03/12 15:44:58;;;;;;;5.90;1.65;;;20.50;43.70;;;;;;6151911;23;20397;-80
2023/03/12 15:47:29;;;;;;;4.57;1.60;;;20.70;43.00;;;;;;6153451;23;20366;-79
2023/03/12 15:49:58;;;;;;;8.77;4.75;;;20.90;42.50;;;;;;6153489;23;20378;-79
2023/03/12 15:52:35;;;;;;;37.63;18.37;;;21.00;42.40;;;;;;6152318;23;20824;-80
2023/03/12 15:55:13;;;;;;;17.65;5.15;;;21.10;42.50;;;;;;6151069;23;20466;-79
2023/03/12 15:57:49;;;;;;;4.47;1.77;;;21.00;42.10;;;;;;6151757;23;20370;-79
2023/03/12 16:00:24;;;;;;;6.07;1.98;;;20.70;43.00;;;;;;6150647;23;20438;-79
2023/03/12 16:03:04;;;;;;;4.45;1.55;;;20.60;42.90;;;;;;6150890;23;20370;-80
2023/03/12 16:05:35;;;;;;;3.38;1.05;;;20.40;42.90;;;;;;6151708;23;20428;-80
2023/03/12 16:08:26;;;;;;;4.38;1.40;;;20.40;43.50;;;;;;6152244;23;20374;-79
2023/03/12 16:10:54;;;;;;;3.15;1.13;;;20.50;43.10;;;;;;6151561;23;20409;-80
2023/03/12 16:13:30;;;;;;;4.63;1.42;;;20.80;42.60;;;;;;6151320;23;20446;-80
2023/03/12 16:15:57;;;;;;;6.07;1.80;;;20.90;41.60;;;;;;6151219;23;20706;-80
2023/03/12 16:18:24;;;;;;;4.05;1.45;;;20.70;41.50;;;;;;6154415;23;20370;-80
2023/03/12 16:20:52;;;;;;;3.88;1.38;;;20.50;42.60;;;;;;6152114;23;20836;-80
2023/03/12 16:23:19;;;;;;;3.90;1.15;;;20.50;42.40;;;;;;6150238;23;20369;-79
2023/03/12 16:25:54;;;;;;;3.73;1.37;;;20.60;42.70;;;;;;6151760;23;20477;-80
2023/03/12 16:28:22;;;;;;;3.13;1.10;;;20.50;42.70;;;;;;6151501;23;20367;-80
2023/03/12 16:30:50;;;;;;;3.97;1.35;;;20.50;43.10;;;;;;6151839;23;20374;-81
2023/03/12 16:33:20;;;;;;;5.32;1.58;;;20.40;43.30;;;;;;6150420;23;20386;-80
2023/03/12 16:35:47;;;;;;;2.85;1.05;;;20.10;43.50;;;;;;6153077;23;20751;-80
2023/03/12 16:38:14;;;;;;;4.60;1.40;;;19.90;44.40;;;;;;6150823;23;20384;-80
2023/03/12 16:40:47;;;;;;;3.30;1.20;;;19.90;44.80;;;;;;6151417;23;20370;-79
2023/03/12 16:43:23;;;;;;;4.72;1.50;;;19.90;44.90;;;;;;6150662;23;20382;-80
2023/03/12 16:45:51;;;;;;;4.10;1.70;;;19.80;45.10;;;;;;6150660;23;20398;-79
2023/03/12 16:48:21;;;;;;;4.72;2.05;;;19.60;45.00;;;;;;6151234;23;21884;-80
2023/03/12 16:50:51;;;;;;;4.90;1.33;;;19.40;45.60;;;;;;6151466;23;20441;-80
2023/03/12 16:53:18;;;;;;;4.18;1.65;;;19.10;46.10;;;;;;6150959;23;20437;-81
2023/03/12 16:55:57;;;;;;;5.63;1.80;;;19.00;46.60;;;;;;6151866;23;20694;-80
2023/03/12 16:58:25;;;;;;;5.55;1.60;;;18.70;47.10;;;;;;6150886;23;20366;-80
2023/03/12 17:00:53;;;;;;;5.63;1.70;;;18.50;48.00;;;;;;6150838;23;20378;-80
2023/03/12 17:03:35;;;;;;;5.32;1.52;;;18.20;48.50;;;;;;6151512;23;20771;-80
2023/03/12 17:06:05;;;;;;;8.03;1.80;;;17.90;49.20;;;;;;6150631;23;20406;-80
2023/03/12 17:08:35;;;;;;;4.47;1.90;;;17.70;49.70;;;;;;6150787;23;20883;-79
2023/03/12 17:11:11;;;;;;;4.20;1.67;;;17.50;50.10;;;;;;6152124;23;20390;-80
2023/03/12 17:13:38;;;;;;;2.85;1.45;;;17.40;50.60;;;;;;6151086;23;20681;-79
2023/03/12 17:16:05;;;;;;;2.80;1.30;;;17.30;51.00;;;;;;6150431;23;20436;-80
2023/03/12 17:18:31;;;;;;;2.67;1.30;;;17.30;51.50;;;;;;6150647;23;20752;-79
2023/03/12 17:20:58;;;;;;;4.50;1.30;;;17.20;51.70;;;;;;6152719;23;20437;-80
2023/03/12 17:23:26;;;;;;;3.53;1.02;;;17.10;51.90;;;;;;6149949;23;20371;-80
2023/03/12 17:25:53;;;;;;;4.70;2.15;;;17.00;52.10;;;;;;6151092;23;20447;-81
2023/03/12 17:28:20;;;;;;;18.83;7.28;;;16.90;52.40;;;;;;6150106;23;20445;-80
2023/03/12 17:30:46;;;;;;;28.50;11.70;;;16.80;52.80;;;;;;6150739;23;20401;-80
2023/03/12 17:33:16;;;;;;;37.27;15.23;;;16.70;53.10;;;;;;6149766;23;20373;-80
2023/03/12 17:35:43;;;;;;;25.25;11.63;;;16.60;53.70;;;;;;6151191;23;20378;-80
2023/03/12 17:38:11;;;;;;;7.55;4.03;;;16.50;54.10;;;;;;6149848;23;20377;-80
2023/03/12 17:40:42;;;;;;;4.22;1.77;;;16.50;54.40;;;;;;6151026;23;20851;-80
2023/03/12 17:43:09;;;;;;;3.47;1.40;;;16.30;54.60;;;;;;6151048;23;20378;-80
2023/03/12 17:45:36;;;;;;;3.42;1.15;;;16.20;55.10;;;;;;6150302;23;20374;-80
2023/03/12 17:48:04;;;;;;;3.75;1.38;;;16.10;55.60;;;;;;6149813;23;20378;-80
2023/03/12 17:50:31;;;;;;;4.30;1.20;;;16.00;55.90;;;;;;6150837;23;20366;-81
2023/03/12 17:52:58;;;;;;;3.58;1.10;;;15.90;56.70;;;;;;6151136;23;20386;-79
2023/03/12 17:55:24;;;;;;;4.40;1.20;;;15.70;57.20;;;;;;6149345;23;20417;-80
2023/03/12 17:57:52;;;;;;;2.85;1.10;;;15.70;57.70;;;;;;6150534;23;20406;-80
2023/03/12 18:00:20;;;;;;;3.63;1.23;;;15.60;58.10;;;;;;6149703;23;20369;-80
2023/03/12 18:02:49;;;;;;;3.58;1.60;;;15.50;58.60;;;;;;6150623;23;20374;-80
2023/03/12 18:05:15;;;;;;;5.00;1.67;;;15.40;59.30;;;;;;6149664;23;20709;-80
2023/03/12 18:07:42;;;;;;;4.03;2.08;;;15.30;59.90;;;;;;6150739;23;20809;-80
2023/03/12 18:10:10;;;;;;;4.90;2.78;;;15.20;60.50;;;;;;6149210;23;20465;-80
2023/03/12 18:12:38;;;;;;;6.93;3.40;;;15.10;61.00;;;;;;6150701;23;20385;-80
2023/03/12 18:15:07;;;;;;;4.20;2.70;;;15.00;61.50;;;;;;6149520;23;20370;-80
2023/03/12 18:17:34;;;;;;;4.45;2.40;;;14.90;61.80;;;;;;6150631;23;20744;-79
2023/03/12 18:20:08;;;;;;;5.80;3.28;;;14.80;62.40;;;;;;6150238;23;20441;-80
2023/03/12 18:22:37;;;;;;;6.00;3.17;;;14.70;63.30;;;;;;6150824;23;20377;-80
2023/03/12 18:25:05;;;;;;;5.72;3.33;;;14.50;64.10;;;;;;6149941;23;20385;-80
2023/03/12 18:27:32;;;;;;;5.60;3.50;;;14.50;64.60;;;;;;6149404;23;20900;-80
2023/03/12 18:29:59;;;;;;;7.47;3.57;;;14.40;65.20;;;;;;6150067;23;20409;-80
2023/03/12 18:32:26;;;;;;;5.13;2.97;;;14.20;67.20;;;;;;6149550;23;20454;-80
2023/03/12 18:34:53;;;;;;;5.60;3.20;;;14.10;68.20;;;;;;6150286;23;20863;-79
2023/03/12 18:37:21;;;;;;;5.88;3.40;;;14.00;67.50;;;;;;6149101;23;20685;-80
2023/03/12 18:39:48;;;;;;;5.47;3.57;;;14.00;69.30;;;;;;6149778;23;20386;-80
2023/03/12 18:42:15;;;;;;;8.55;4.82;;;13.90;68.50;;;;;;6149509;23;20534;-80
2023/03/12 18:44:42;;;;;;;6.27;4.30;;;13.80;70.10;;;;;;6150340;23;20454;-80
2023/03/12 18:47:09;;;;;;;8.20;5.65;;;13.70;70.10;;;;;;6149815;23;20386;-79
2023/03/12 18:49:36;;;;;;;8.38;5.30;;;13.70;70.70;;;;;;6149358;23;20700;-81
2023/03/12 18:52:03;;;;;;;8.80;5.45;;;13.60;71.40;;;;;;6150200;23;20477;-80
2023/03/12 18:54:32;;;;;;;6.55;4.57;;;13.50;71.10;;;;;;6149445;23;20453;-80
2023/03/12 18:56:59;;;;;;;7.65;4.70;;;13.40;71.30;;;;;;6126088;23;20756;-80
2023/03/12 18:59:27;;;;;;;7.15;5.00;;;13.30;71.60;;;;;;6149388;23;20382;-79
2023/03/12 19:01:56;;;;;;;8.98;4.88;;;13.30;73.70;;;;;;6150222;23;20374;-80
2023/03/12 19:04:24;;;;;;;7.70;4.18;;;13.10;74.60;;;;;;6149693;23;20377;-79
2023/03/12 19:06:51;;;;;;;8.23;4.72;;;13.00;75.30;;;;;;6149805;23;20374;-80
2023/03/12 19:09:19;;;;;;;7.43;4.80;;;13.00;75.90;;;;;;6149132;23;20417;-79
2023/03/12 19:11:47;;;;;;;7.68;5.68;;;12.90;76.20;;;;;;6149667;23;20378;-80
2023/03/12 19:14:14;;;;;;;8.32;5.35;;;12.80;76.60;;;;;;6149532;23;20398;-80
2023/03/12 19:16:43;;;;;;;7.33;5.43;;;12.80;76.70;;;;;;6149889;23;20378;-80
2023/03/12 19:19:10;;;;;;;7.87;5.47;;;12.70;77.00;;;;;;6150546;23;20521;-80
2023/03/12 19:21:37;;;;;;;10.67;6.17;;;12.60;78.00;;;;;;6148958;23;20769;-80
2023/03/12 19:24:05;;;;;;;9.87;6.03;;;12.50;80.30;;;;;;6150085;23;20462;-80
2023/03/12 19:26:32;;;;;;;8.70;5.07;;;12.40;84.40;;;;;;6148834;23;20378;-80
2023/03/12 19:29:02;;;;;;;7.30;3.40;;;12.30;84.90;;;;;;6150198;23;20377;-80
2023/03/12 19:31:32;;;;;;;5.70;3.80;;;12.20;83.80;;;;;;6148520;23;20734;-79
2023/03/12 19:33:59;;;;;;;8.65;4.35;;;12.20;83.30;;;;;;6149940;23;20410;-81
2023/03/12 19:36:26;;;;;;;7.03;4.00;;;12.00;80.70;;;;;;6149401;23;20437;-80
2023/03/12 19:38:53;;;;;;;7.55;3.90;;;11.90;79.90;;;;;;6150952;23;20772;-81
2023/03/12 19:41:20;;;;;;;7.75;4.70;;;11.80;80.10;;;;;;6148402;23;20398;-81
2023/03/12 19:43:47;;;;;;;8.03;3.63;;;11.70;81.60;;;;;;6150165;23;20416;-81
2023/03/12 19:46:14;;;;;;;7.00;3.83;;;11.50;83.00;;;;;;6151535;23;20832;-81
2023/03/12 19:48:42;;;;;;;6.35;3.80;;;11.40;84.40;;;;;;6149989;23;20370;-80
2023/03/12 19:51:11;;;;;;;5.53;3.75;;;11.30;85.10;;;;;;6150443;23;20374;-81
2023/03/12 19:53:38;;;;;;;8.55;4.65;;;11.30;85.30;;;;;;6150847;23;20421;-81
2023/03/12 19:56:05;;;;;;;5.20;4.22;;;11.20;86.10;;;;;;6151878;23;20378;-81
2023/03/12 19:58:32;;;;;;;6.93;4.32;;;11.20;86.70;;;;;;6156721;23;20366;-79
2023/03/12 20:01:00;;;;;;;6.75;4.47;;;11.10;86.80;;;;;;6155333;23;20394;-81
2023/03/12 20:03:31;;;;;;;10.52;5.03;;;11.10;87.70;;;;;;6151094;23;20389;-81
2023/03/12 20:06:00;;;;;;;6.97;4.45;;;11.10;87.50;;;;;;6152227;23;20836;-81
2023/03/12 20:08:30;;;;;;;8.38;5.90;;;11.10;87.60;;;;;;6149751;23;20371;-82
2023/03/12 20:11:07;;;;;;;7.80;5.40;;;11.00;89.70;;;;;;6151569;23;20433;-80
2023/03/12 20:13:37;;;;;;;6.78;4.45;;;10.90;90.30;;;;;;6152127;23;20374;-81
2023/03/12 20:16:06;;;;;;;10.30;5.68;;;10.90;90.00;;;;;;6151877;23;20382;-80
2023/03/12 20:18:33;;;;;;;7.55;4.97;;;10.80;90.50;;;;;;6150555;23;20686;-81
2023/03/12 20:21:02;;;;;;;7.95;5.72;;;10.80;90.80;;;;;;6151948;23;20441;-80
2023/03/12 20:23:30;;;;;;;11.57;6.72;;;10.70;91.30;;;;;;6151781;23;20394;-80
2023/03/12 20:25:57;;;;;;;11.73;7.25;;;10.50;93.20;;;;;;6151556;23;20366;-81
2023/03/12 20:28:24;;;;;;;11.07;6.90;;;10.40;94.60;;;;;;6150525;23;20362;-81
2023/03/12 20:30:51;;;;;;;11.13;6.78;;;10.40;94.20;;;;;;6153185;23;20401;-81